Time;durP1;ratioP1;P1;durP2;ratioP2;P2;SDS_P1;SDS_P2;PMS_P1;PMS_P2;Temp;Humidity;BMP_temperature;BMP_pressure;BME280_temperature;BME280_humidity;BME280_pressure;Samples;Min_cycle;Max_cycle;Signal;HPM_P1;HPM_P2
2022/02/02 00:00:38;;;;;;;26.15;5.38;;;;;;;8.58;76.35;99241.97;5090230;28;20052;-60
2022/02/02 00:03:10;;;;;;;26.30;5.05;;;;;;;8.56;76.16;99263.97;5090675;28;20075;-60
2022/02/02 00:05:51;;;;;;;22.58;4.60;;;;;;;8.54;76.04;99252.72;5091717;28;20834;-59
2022/02/02 00:08:32;;;;;;;29.80;5.88;;;;;;;8.50;75.88;99251.16;5091714;28;20048;-59
2022/02/02 00:11:42;;;;;;;24.67;5.63;;;;;;;8.48;75.84;99249.47;5091559;28;20447;-59
2022/02/02 00:13:59;;;;;;;26.67;5.05;;;;;;;8.46;75.73;99253.13;5091528;28;20093;-59
2022/02/02 00:19:19;;;;;;;25.38;4.28;;;;;;;8.39;75.94;99250.00;5090939;28;20637;-62
2022/02/02 00:21:50;;;;;;;20.85;4.35;;;;;;;8.38;75.87;99257.97;5090160;28;20407;-60
2022/02/02 00:24:27;;;;;;;17.25;3.72;;;;;;;8.35;75.89;99256.34;5091322;28;20113;-58
2022/02/02 00:26:57;;;;;;;26.42;4.00;;;;;;;8.34;76.07;99258.13;5090968;28;20052;-61
2022/02/02 00:29:31;;;;;;;23.58;4.65;;;;;;;8.33;76.31;99252.94;5090546;28;20098;-59
2022/02/02 00:34:43;;;;;;;24.50;4.78;;;;;;;8.31;76.00;99268.81;5091341;28;20055;-59
2022/02/02 00:37:11;;;;;;;39.25;5.10;;;;;;;8.30;76.22;99282.81;5090789;28;20098;-61
2022/02/02 00:39:37;;;;;;;28.23;4.20;;;;;;;8.30;76.28;99285.44;5089615;28;20044;-59
2022/02/02 00:42:04;;;;;;;24.65;4.28;;;;;;;8.32;76.53;99299.34;5089632;28;20052;-61
2022/02/02 00:44:33;;;;;;;35.03;5.20;;;;;;;8.32;76.40;99296.72;5091004;28;20101;-59
2022/02/02 00:46:59;;;;;;;24.67;4.28;;;;;;;8.33;76.45;99297.53;5089616;28;20135;-61
2022/02/02 00:49:26;;;;;;;24.50;4.63;;;;;;;8.35;76.48;99293.06;5090925;28;20250;-60
2022/02/02 00:51:57;;;;;;;32.47;5.80;;;;;;;8.35;76.78;99291.28;5090768;28;20055;-59
2022/02/02 00:54:26;;;;;;;24.42;5.30;;;;;;;8.38;76.44;99292.06;5089570;28;20492;-61
2022/02/02 00:56:54;;;;;;;30.50;4.90;;;;;;;8.40;76.32;99325.13;5089233;28;20450;-60
2022/02/02 00:59:24;;;;;;;33.97;5.25;;;;;;;8.42;76.67;99325.91;5089339;28;20138;-61
2022/02/02 01:01:52;;;;;;;33.40;5.07;;;;;;;8.43;76.41;99293.50;5089461;28;20495;-61
2022/02/02 01:04:18;;;;;;;21.83;3.40;;;;;;;8.44;75.59;99312.69;5089441;28;20048;-61
2022/02/02 01:07:06;;;;;;;26.38;4.15;;;;;;;8.45;75.53;99293.41;5090366;28;20560;-60
2022/02/02 01:09:41;;;;;;;21.02;4.57;;;;;;;8.46;75.86;99314.28;5090517;28;20044;-60
2022/02/02 01:12:41;;;;;;;22.48;4.50;;;;;;;8.45;76.13;99307.34;5090695;28;20056;-59
2022/02/02 01:20:51;;;;;;;19.67;4.15;;;;;;;8.42;75.35;99318.03;5090621;28;20055;-59
2022/02/02 01:28:36;;;;;;;16.58;2.97;;;;;;;8.35;74.70;99304.38;5090401;28;20093;-59
2022/02/02 01:31:04;;;;;;;13.55;3.25;;;;;;;8.33;75.00;99316.75;5089070;28;20052;-61
2022/02/02 01:33:32;;;;;;;20.17;3.10;;;;;;;8.30;74.91;99321.31;5090681;28;20048;-60
2022/02/02 01:36:00;;;;;;;15.98;2.80;;;;;;;8.26;74.60;99304.91;5089208;28;21093;-59
2022/02/02 01:38:31;;;;;;;16.10;2.72;;;;;;;8.25;74.86;99336.44;5089271;28;20109;-62
2022/02/02 01:41:06;;;;;;;21.77;3.28;;;;;;;8.21;75.02;99328.75;5090386;28;20052;-59
2022/02/02 01:43:39;;;;;;;17.27;3.42;;;;;;;8.20;75.13;99318.34;5093967;28;20075;-60
2022/02/02 01:46:11;;;;;;;18.33;3.33;;;;;;;8.17;75.23;99335.09;5092819;28;20054;-57
2022/02/02 01:56:08;;;;;;;20.02;3.83;;;;;;;8.11;75.35;99324.94;5094185;28;20506;-58
2022/02/02 01:58:53;;;;;;;25.85;4.10;;;;;;;8.10;75.66;99327.66;5092769;28;20048;-59
2022/02/02 02:01:20;;;;;;;24.45;4.25;;;;;;;8.10;75.49;99323.25;5093859;28;20048;-56
2022/02/02 02:03:46;;;;;;;21.63;4.10;;;;;;;8.11;75.85;99321.47;5093918;28;20105;-59
2022/02/02 02:06:13;;;;;;;21.88;4.35;;;;;;;8.08;75.75;99306.75;5093808;28;20102;-58
2022/02/02 02:08:41;;;;;;;14.77;3.63;;;;;;;8.06;75.65;99316.47;5093998;28;20485;-57
2022/02/02 02:11:14;;;;;;;18.20;4.32;;;;;;;8.07;75.68;99308.53;5092264;28;20504;-59
2022/02/02 02:16:08;;;;;;;16.05;3.25;;;;;;;8.06;75.54;99316.47;5093729;28;20048;-58
2022/02/02 02:18:34;;;;;;;18.52;3.45;;;;;;;8.06;75.75;99332.19;5093720;28;20044;-59
2022/02/02 02:21:03;;;;;;;19.80;3.05;;;;;;;8.07;76.02;99336.50;5093563;28;20393;-59
2022/02/02 02:23:30;;;;;;;17.35;3.22;;;;;;;8.06;75.98;99332.19;5092294;28;20055;-57
2022/02/02 02:25:56;;;;;;;16.58;3.92;;;;;;;8.07;75.79;99331.25;5092848;28;20062;-59
2022/02/02 02:28:41;;;;;;;19.67;3.17;;;;;;;8.06;75.71;99348.78;5093296;28;20121;-57
2022/02/02 02:31:21;;;;;;;16.77;2.92;;;;;;;8.08;75.50;99338.22;5093368;28;20541;-59
2022/02/02 02:58:12;;;;;;;19.73;3.42;;;;;;;8.07;75.90;99375.81;5072753;28;20052;-59
2022/02/02 03:14:09;;;;;;;13.63;3.10;;;;;;;8.04;75.80;99370.75;5092930;28;20082;-59
2022/02/02 03:29:45;;;;;;;19.13;3.53;;;;;;;7.94;76.34;99400.09;5092360;28;20473;-59
2022/02/02 03:55:36;;;;;;;11.98;2.53;;;;;;;7.69;75.41;99424.06;5091755;28;20093;-58
2022/02/02 04:04:00;;;;;;;16.23;2.60;;;;;;;7.68;75.79;99423.22;5091677;28;20495;-57
2022/02/02 04:06:28;;;;;;;18.58;2.92;;;;;;;7.67;75.63;99416.25;5091296;28;20109;-59
2022/02/02 04:08:54;;;;;;;17.50;2.95;;;;;;;7.68;75.83;99418.00;5091660;28;20071;-59
2022/02/02 04:11:38;;;;;;;17.73;3.22;;;;;;;7.67;76.05;99434.59;5091371;28;20052;-59
2022/02/02 04:38:51;;;;;;;21.55;3.80;;;;;;;7.76;76.13;99463.88;5091228;28;20052;-57
2022/02/02 04:55:25;;;;;;;18.90;3.13;;;;;;;7.86;75.59;99482.63;5089514;28;20097;-58
2022/02/02 05:01:10;;;;;;;21.60;3.58;;;;;;;7.89;75.63;99478.06;5070667;28;20081;-58
2022/02/02 05:41:07;;;;;;;13.50;2.92;;;;;;;7.72;75.17;99533.09;5094345;28;20055;-59
2022/02/02 05:44:20;;;;;;;21.45;4.07;;;;;;;7.64;75.67;99542.19;5094441;28;20052;-59
2022/02/02 05:49:22;;;;;;;26.65;4.90;;;;;;;7.63;75.03;99556.19;5093964;28;20746;-59
2022/02/02 05:51:41;;;;;;;20.38;3.33;;;;;;;7.64;75.31;99544.81;5091060;28;20052;-56
2022/02/02 05:54:08;;;;;;;22.77;3.30;;;;;;;7.65;75.63;99556.13;5094401;28;20048;-56
2022/02/02 05:56:50;;;;;;;18.30;3.05;;;;;;;7.61;74.02;99547.56;5093720;28;20044;-59
2022/02/02 05:59:20;;;;;;;24.38;4.00;;;;;;;7.65;75.51;99564.84;5092756;28;20052;-58
2022/02/02 06:01:53;;;;;;;22.73;3.80;;;;;;;7.64;74.57;99555.28;5094129;28;20044;-57
2022/02/02 06:04:21;;;;;;;;;;;;;;;7.66;74.01;99556.03;5094501;28;20049;-57
2022/02/02 06:06:49;;;;;;;18.25;4.03;;;;;;;7.71;75.71;99568.94;5093811;28;19931;-60
2022/02/02 06:09:16;;;;;;;23.85;4.57;;;;;;;7.69;75.67;99566.38;5092294;28;20105;-59
2022/02/02 06:11:43;;;;;;;21.88;4.00;;;;;;;7.69;75.78;99568.16;5094298;28;20044;-57
2022/02/02 06:14:10;;;;;;;19.40;3.75;;;;;;;7.71;75.61;99566.31;5093814;28;20044;-60
2022/02/02 06:16:39;;;;;;;21.92;4.10;;;;;;;7.69;75.68;99571.63;5093613;28;20044;-54
2022/02/02 06:19:05;;;;;;;26.83;3.75;;;;;;;7.69;75.43;99562.91;5092261;28;20112;-65
2022/02/02 06:21:34;;;;;;;31.60;4.88;;;;;;;7.68;75.21;99572.56;5093535;28;20055;-58
2022/02/02 06:24:13;;;;;;;23.50;4.85;;;;;;;7.66;73.59;99566.53;5092251;28;20052;-56
2022/02/02 06:26:45;;;;;;;21.02;3.92;;;;;;;7.69;75.55;99579.50;5092511;28;20047;-60
2022/02/02 06:29:13;;;;;;;24.50;4.18;;;;;;;7.69;75.30;99573.38;5091483;28;20489;-59
2022/02/02 06:31:41;;;;;;;27.83;4.20;;;;;;;7.67;75.42;99573.47;5092262;28;20048;-58
2022/02/02 06:34:11;;;;;;;21.05;3.78;;;;;;;7.68;75.14;99575.19;5092912;28;20189;-59
2022/02/02 06:36:38;;;;;;;20.45;3.50;;;;;;;7.67;74.76;99572.63;5093820;28;20055;-60
2022/02/02 06:39:10;;;;;;;21.67;3.85;;;;;;;7.65;73.63;99577.94;5093217;28;20052;-59
2022/02/02 06:41:38;;;;;;;20.73;4.57;;;;;;;7.67;74.85;99567.38;5093417;28;20044;-58
2022/02/02 06:44:05;;;;;;;16.08;2.95;;;;;;;7.66;74.99;99560.44;5092948;28;20048;-59
2022/02/02 06:46:35;;;;;;;22.65;4.45;;;;;;;7.66;75.12;99573.53;5091855;28;20048;-61
2022/02/02 06:49:03;;;;;;;20.88;3.95;;;;;;;7.63;74.59;99576.31;5091970;28;20048;-60
2022/02/02 06:54:17;;;;;;;14.57;2.90;;;;;;;7.60;73.31;99603.50;5092814;28;20048;-61
2022/02/02 07:07:50;;;;;;;28.48;4.40;;;;;;;7.56;73.79;99617.66;5092870;28;20051;-57
2022/02/02 07:18:12;;;;;;;21.38;3.42;;;;;;;7.58;74.62;99636.78;5092666;28;20040;-60
2022/02/02 07:31:40;;;;;;;16.30;3.33;;;;;;;7.59;74.95;99664.66;5091972;28;20105;-59
2022/02/02 07:34:09;;;;;;;13.63;2.85;;;;;;;7.58;74.67;99664.75;5091689;28;20063;-60
2022/02/02 07:36:41;;;;;;;17.25;3.80;;;;;;;7.56;74.85;99675.28;5091893;28;20397;-59
2022/02/02 07:39:11;;;;;;;13.57;3.08;;;;;;;7.55;75.16;99673.56;5089979;28;20464;-60
2022/02/02 07:41:44;;;;;;;16.52;3.00;;;;;;;7.53;73.93;99675.44;5090453;28;20089;-59
2022/02/02 07:44:20;;;;;;;14.27;2.83;;;;;;;7.54;74.89;99672.75;5091089;28;20046;-59
2022/02/02 07:46:51;;;;;;;17.73;3.22;;;;;;;7.54;75.24;99677.13;5091811;28;20538;-61
2022/02/02 07:49:29;;;;;;;19.73;3.25;;;;;;;7.54;74.46;99680.59;5091756;28;20067;-61
2022/02/02 07:51:57;;;;;;;22.50;5.00;;;;;;;7.57;75.47;99679.59;5092149;28;20075;-61
2022/02/02 07:54:30;;;;;;;24.20;3.95;;;;;;;7.59;75.00;99684.78;5091873;28;20063;-60
2022/02/02 07:57:13;;;;;;;19.25;4.05;;;;;;;7.62;75.32;99692.50;5090182;28;20048;-60
2022/02/02 07:59:59;;;;;;;23.92;3.80;;;;;;;7.62;74.98;99695.13;5091112;28;20067;-59
2022/02/02 08:05:16;;;;;;;15.32;3.33;;;;;;;7.67;75.64;99699.22;5090726;28;20052;-60
2022/02/02 08:07:51;;;;;;;19.30;3.83;;;;;;;7.70;75.84;99706.06;5090493;28;20056;-59
2022/02/02 08:10:22;;;;;;;18.40;2.88;;;;;;;7.73;75.58;99736.56;5091607;28;20416;-60
2022/02/02 08:13:01;;;;;;;20.60;4.35;;;;;;;7.75;75.32;99734.69;5089679;28;20059;-60
2022/02/02 08:15:32;;;;;;;18.52;3.28;;;;;;;7.76;75.33;99718.91;5091377;28;20113;-60
2022/02/02 08:17:59;;;;;;;18.15;3.55;;;;;;;7.79;75.58;99731.03;5091548;28;20048;-59
2022/02/02 08:20:26;;;;;;;13.57;2.97;;;;;;;7.81;75.74;99726.53;5091027;28;20052;-59
2022/02/02 08:22:53;;;;;;;18.30;3.03;;;;;;;7.83;75.66;99724.72;5090357;28;20091;-61
2022/02/02 08:25:27;;;;;;;27.70;3.83;;;;;;;7.85;75.86;99730.72;5091269;28;20062;-59
2022/02/02 08:27:58;;;;;;;17.27;3.33;;;;;;;7.88;75.44;99743.69;5090139;28;20044;-62
2022/02/02 08:30:28;;;;;;;26.00;3.75;;;;;;;7.91;75.40;99742.69;5091098;28;20040;-60
2022/02/02 08:33:00;;;;;;;19.75;3.42;;;;;;;7.94;75.48;99760.91;5091185;28;20051;-61
2022/02/02 08:35:34;;;;;;;23.00;3.60;;;;;;;7.97;74.54;99752.06;5091277;28;20139;-60
2022/02/02 08:40:38;;;;;;;15.48;3.25;;;;;;;8.03;75.20;99750.00;5090807;28;20048;-59
2022/02/02 08:43:11;;;;;;;21.05;3.72;;;;;;;8.05;75.49;99757.81;5089814;28;20051;-62
2022/02/02 08:45:40;;;;;;;18.40;4.35;;;;;;;8.07;75.22;99755.94;5089678;28;20055;-59
2022/02/02 08:48:10;;;;;;;21.35;3.80;;;;;;;8.09;75.41;99777.72;5091179;28;20052;-59
2022/02/02 09:01:12;;;;;;;18.98;3.00;;;;;;;8.24;74.91;99796.25;5089279;28;20160;-59
2022/02/02 09:06:24;;;;;;;25.35;2.67;;;;;;;8.28;75.25;99803.06;5091174;28;20044;-59
2022/02/02 09:09:00;;;;;;;16.42;3.30;;;;;;;8.28;75.33;99805.69;5090903;28;20051;-61
2022/02/02 09:25:20;;;;;;;18.52;3.90;;;;;;;8.41;75.22;99840.91;5090390;28;20054;-59
2022/02/02 09:36:08;;;;;;;12.88;3.25;;;;;;;8.51;74.98;99856.22;5090783;28;20052;-59
2022/02/02 09:38:34;;;;;;;12.90;2.63;;;;;;;8.53;75.11;99855.28;5089485;28;20059;-59
2022/02/02 09:43:45;;;;;;;17.98;2.72;;;;;;;8.52;73.43;99863.19;5090410;28;20102;-59
2022/02/02 09:46:15;;;;;;;20.50;3.60;;;;;;;8.55;74.75;99869.16;5089188;28;20123;-59
2022/02/02 09:48:56;;;;;;;18.23;2.90;;;;;;;8.57;75.32;99872.56;5089192;28;20488;-60
2022/02/02 09:51:32;;;;;;;13.23;2.67;;;;;;;8.59;75.67;99872.47;5090339;28;20051;-59
2022/02/02 09:54:10;;;;;;;15.60;2.65;;;;;;;8.64;76.02;99878.38;5090330;28;20040;-58
2022/02/02 10:10:49;;;;;;;23.38;3.35;;;;;;;8.88;73.64;99880.75;5093791;28;20097;-59
2022/02/02 10:15:57;;;;;;;20.05;4.10;;;;;;;8.97;75.52;99893.44;5093814;28;20056;-60
2022/02/02 10:18:34;;;;;;;16.75;3.13;;;;;;;8.98;74.46;99897.75;5093759;28;20048;-60
2022/02/02 10:21:02;;;;;;;14.48;2.63;;;;;;;9.04;76.04;99916.78;5093192;28;20554;-59
2022/02/02 10:23:33;;;;;;;24.15;4.05;;;;;;;9.10;75.62;99908.59;5093619;28;20438;-59
2022/02/02 10:26:32;;;;;;;23.58;3.35;;;;;;;9.16;73.24;99923.22;5092467;28;20044;-61
2022/02/02 10:29:07;;;;;;;26.05;4.00;;;;;;;9.23;73.38;99907.06;5081014;28;20121;-60
2022/02/02 10:31:39;;;;;;;17.88;3.30;;;;;;;9.32;74.25;99910.19;5093290;28;20450;-60
2022/02/02 10:34:11;;;;;;;12.80;2.97;;;;;;;9.38;74.21;99920.38;5093795;28;20055;-60
2022/02/02 10:36:38;;;;;;;18.77;3.15;;;;;;;9.46;75.63;99923.47;5093274;28;20052;-61
2022/02/02 10:39:11;;;;;;;23.27;3.42;;;;;;;9.52;75.25;99912.66;5093401;28;20067;-59
2022/02/02 10:41:50;;;;;;;15.27;3.65;;;;;;;9.59;74.33;99913.22;5092001;28;20052;-58
2022/02/02 10:44:35;;;;;;;19.70;3.60;;;;;;;9.66;73.91;99921.63;5092050;28;20085;-58
2022/02/02 10:47:30;;;;;;;18.02;3.95;;;;;;;9.71;72.78;99932.75;5092896;28;20074;-58
2022/02/02 10:50:29;;;;;;;15.13;3.33;;;;;;;9.78;71.64;99914.91;5091749;28;20044;-61
2022/02/02 10:56:04;;;;;;;20.92;3.47;;;;;;;9.94;75.11;99941.25;5093075;28;20513;-59
2022/02/02 11:06:40;;;;;;;15.88;3.30;;;;;;;10.29;74.73;99943.81;5091809;28;20069;-60
2022/02/02 11:09:13;;;;;;;20.83;2.95;;;;;;;10.32;71.66;99948.06;5091164;28;20378;-59
2022/02/02 11:11:41;;;;;;;15.00;3.10;;;;;;;10.38;73.43;99957.41;5092679;28;20056;-60
2022/02/02 11:14:38;;;;;;;20.58;3.47;;;;;;;10.37;70.79;99956.59;5092571;28;20055;-59
2022/02/02 11:17:19;;;;;;;17.30;3.30;;;;;;;10.40;70.31;99956.41;5092725;28;20051;-61
2022/02/02 11:19:48;;;;;;;16.05;2.75;;;;;;;10.45;72.29;99966.72;5091370;28;20066;-60
2022/02/02 11:22:33;;;;;;;20.63;3.58;;;;;;;10.42;71.23;99965.09;5092627;28;20051;-61
2022/02/02 11:25:02;;;;;;;16.02;3.42;;;;;;;10.43;71.70;99960.66;5092696;28;20044;-59
2022/02/02 11:27:37;;;;;;;22.33;2.78;;;;;;;10.42;70.97;99961.59;5092335;28;20044;-60
2022/02/02 11:30:09;;;;;;;15.98;2.70;;;;;;;10.42;72.21;99974.75;5092187;28;20117;-60
2022/02/02 11:32:42;;;;;;;13.23;3.30;;;;;;;10.40;70.80;99964.28;5091359;28;20055;-60
2022/02/02 11:35:35;;;;;;;13.63;2.42;;;;;;;10.39;69.38;99969.66;5092356;28;20282;-59
2022/02/02 11:38:27;;;;;;;17.58;2.83;;;;;;;10.48;73.60;99977.09;5091098;28;20044;-59
2022/02/02 11:41:03;;;;;;;24.33;3.23;;;;;;;10.48;70.91;99969.22;5090894;28;20048;-59
2022/02/02 11:43:59;;;;;;;18.17;2.80;;;;;;;10.52;70.20;99976.00;5092127;28;20058;-60
2022/02/02 11:46:46;;;;;;;15.45;2.60;;;;;;;10.55;70.04;99978.44;5092101;28;20125;-59
2022/02/02 11:49:20;;;;;;;12.57;2.63;;;;;;;10.65;73.26;99970.09;5090713;28;20458;-61
2022/02/02 11:51:54;;;;;;;13.40;2.88;;;;;;;10.66;70.31;99985.78;5092153;28;20051;-59
2022/02/02 11:54:30;;;;;;;20.60;2.78;;;;;;;10.67;70.06;99978.75;5091805;28;20097;-60
2022/02/02 11:57:12;;;;;;;15.05;2.78;;;;;;;10.71;71.21;99977.63;5091787;28;20488;-62
2022/02/02 12:08:56;;;;;;;11.57;2.40;;;;;;;11.76;70.86;99982.38;5092030;28;20012;-60
2022/02/02 13:00:20;;;;;;;9.38;1.88;;;;;;;12.43;67.97;100029.50;5090746;28;20056;-59
2022/02/02 13:02:48;;;;;;;10.60;2.25;;;;;;;12.37;67.33;100024.56;5089671;28;20060;-60
2022/02/02 13:05:15;;;;;;;10.63;2.33;;;;;;;12.30;66.83;100032.00;5089581;28;20090;-60
2022/02/02 13:07:42;;;;;;;9.00;2.35;;;;;;;12.26;67.41;100027.84;5090727;28;20052;-59
2022/02/02 13:10:20;;;;;;;9.48;1.95;;;;;;;12.25;67.40;100029.66;5089053;28;20055;-59
2022/02/02 13:15:27;;;;;;;9.02;2.38;;;;;;;12.42;68.53;100040.16;5090685;28;20587;-59
2022/02/02 13:18:45;;;;;;;7.72;2.08;;;;;;;12.50;63.04;100045.81;5090832;28;20105;-59
2022/02/02 13:21:34;;;;;;;12.50;2.47;;;;;;;12.66;69.03;100055.44;5080722;28;20048;-60
2022/02/02 13:24:10;;;;;;;9.43;2.08;;;;;;;12.74;68.14;100045.25;5090646;28;20089;-60
2022/02/02 13:27:01;;;;;;;10.15;2.25;;;;;;;12.81;67.27;100037.78;5089280;28;20056;-61
2022/02/02 13:29:41;;;;;;;14.88;2.80;;;;;;;12.86;67.72;100048.94;5090511;28;20048;-59
2022/02/02 13:35:05;;;;;;;9.32;1.88;;;;;;;12.90;64.75;100053.09;5090642;28;20696;-59
2022/02/02 13:49:37;;;;;;;;;;;;;;;13.28;65.36;100052.44;5095263;28;20167;-58
2022/02/02 13:52:23;;;;;;;8.45;1.60;;;;;;;13.41;68.05;100051.66;5094095;28;19927;-59
2022/02/02 13:55:32;;;;;;;8.73;1.67;;;;;;;13.41;63.65;100049.03;5094316;28;20055;-61
2022/02/02 13:58:30;;;;;;;11.07;2.25;;;;;;;13.49;63.96;100056.53;5094282;28;20055;-59
2022/02/02 14:01:09;;;;;;;11.27;2.13;;;;;;;13.55;67.58;100056.97;5094024;28;20044;-59
2022/02/02 14:06:33;;;;;;;11.35;2.75;;;;;;;13.63;67.49;100053.81;5093918;28;20056;-59
2022/02/02 14:09:20;;;;;;;13.00;2.00;;;;;;;13.71;68.04;100065.72;5094162;28;20054;-58
2022/02/02 14:31:12;;;;;;;14.18;2.55;;;;;;;13.88;66.85;100081.31;5093275;28;20099;-60
2022/02/02 14:33:54;;;;;;;11.80;2.63;;;;;;;14.03;66.49;100091.84;5093805;28;20565;-60
2022/02/02 14:36:27;;;;;;;9.13;2.05;;;;;;;14.17;66.67;100090.91;5092330;28;20044;-60
2022/02/02 14:47:12;;;;;;;13.20;2.15;;;;;;;15.01;68.80;100098.50;5093267;28;20121;-60
2022/02/02 14:49:54;;;;;;;11.07;2.78;;;;;;;15.35;68.75;100100.56;5091219;28;20052;-59
2022/02/02 15:33:21;;;;;;;9.25;1.60;;;;;;;14.71;57.47;100158.81;5058160;28;20094;-59
2022/02/02 15:35:51;;;;;;;9.00;1.80;;;;;;;14.34;58.05;100155.97;5092053;28;20051;-59
2022/02/02 15:38:23;;;;;;;6.25;1.85;;;;;;;13.98;58.35;100160.09;5092542;28;20059;-59
2022/02/02 15:40:59;;;;;;;5.57;1.58;;;;;;;13.66;59.11;100155.94;5092060;28;20109;-59
2022/02/02 16:02:20;;;;;;;9.50;1.70;;;;;;;11.97;61.48;100172.88;5091057;28;20095;-61
2022/02/02 16:04:52;;;;;;;6.80;1.67;;;;;;;11.83;61.49;100169.22;5091468;28;20397;-60
2022/02/02 16:07:25;;;;;;;6.63;1.48;;;;;;;11.72;61.64;100174.25;5091697;28;20052;-60
2022/02/02 16:09:54;;;;;;;6.72;1.77;;;;;;;11.59;62.08;100177.53;5091477;28;20523;-60
2022/02/02 16:12:37;;;;;;;7.93;1.40;;;;;;;11.49;61.75;100184.25;5091563;28;20079;-59
2022/02/02 16:39:13;;;;;;;6.10;2.10;;;;;;;10.38;63.31;100202.16;5091227;28;20404;-61
2022/02/02 16:44:25;;;;;;;8.70;1.20;;;;;;;10.18;63.41;100203.97;5090898;28;20052;-59
2022/02/02 16:46:52;;;;;;;5.88;1.10;;;;;;;10.08;63.58;100206.19;5091019;28;20051;-60
2022/02/02 16:49:20;;;;;;;3.95;1.00;;;;;;;10.01;64.00;100197.75;5090985;28;20048;-60
2022/02/02 16:51:47;;;;;;;10.77;1.75;;;;;;;9.95;64.04;100202.44;5089830;28;20093;-59
2022/02/02 16:54:22;;;;;;;5.78;1.67;;;;;;;9.90;64.18;100207.91;5090748;28;20052;-61
2022/02/02 16:57:14;;;;;;;6.53;1.52;;;;;;;9.85;64.28;100207.28;5089711;28;20094;-63
2022/02/02 17:25:07;;;;;;;6.65;1.67;;;;;;;9.20;65.40;100238.16;5091260;28;20458;-59
2022/02/02 17:35:31;;;;;;;6.78;1.80;;;;;;;9.03;65.83;100252.03;5090189;28;20492;-59
2022/02/02 17:40:51;;;;;;;6.90;2.30;;;;;;;8.98;66.17;100244.34;5090454;28;20131;-62
2022/02/02 18:19:07;;;;;;;14.02;2.78;;;;;;;8.56;67.88;100253.09;5090294;28;20105;-60
2022/02/02 18:21:34;;;;;;;13.13;2.95;;;;;;;8.56;67.69;100253.94;5088827;28;20050;-62
2022/02/02 18:24:10;;;;;;;17.20;3.08;;;;;;;8.56;67.95;100245.25;5090765;28;20040;-59
2022/02/02 18:26:47;;;;;;;13.70;3.45;;;;;;;8.56;67.84;100253.09;5092378;28;20051;-59
2022/02/02 18:29:33;;;;;;;11.20;2.85;;;;;;;8.57;67.98;100246.94;5093505;28;20048;-62
2022/02/02 18:32:18;;;;;;;14.98;3.63;;;;;;;8.57;68.01;100245.16;5093263;28;20048;-64
2022/02/02 18:34:51;;;;;;;11.75;2.58;;;;;;;8.57;68.25;100242.53;5093436;28;20040;-61
2022/02/02 18:38:50;;;;;;;15.15;2.92;;;;;;;8.57;68.20;100244.31;5093551;28;20044;-59
2022/02/02 18:56:37;;;;;;;14.13;3.58;;;;;;;8.35;68.39;100237.28;5093247;28;20101;-59
2022/02/02 19:07:05;;;;;;;13.80;3.75;;;;;;;8.27;68.88;100247.22;5092970;28;20487;-62
2022/02/02 19:40:11;;;;;;;18.00;3.97;;;;;;;8.06;69.14;100247.13;5091961;28;20446;-62
2022/02/02 19:56:53;;;;;;;14.00;3.42;;;;;;;7.87;69.01;100253.09;5092250;28;20048;-59
2022/02/02 20:12:29;;;;;;;12.45;3.00;;;;;;;7.79;69.19;100263.88;5091817;28;20051;-59
2022/02/02 20:14:56;;;;;;;17.00;3.17;;;;;;;7.79;69.00;100252.53;5091716;28;20117;-60
2022/02/02 20:17:25;;;;;;;11.30;2.63;;;;;;;7.79;69.26;100263.00;5091102;28;20044;-59
2022/02/02 20:20:13;;;;;;;10.02;2.67;;;;;;;7.80;69.19;100264.72;5091535;28;20064;-60
2022/02/02 20:22:39;;;;;;;13.68;2.80;;;;;;;7.80;68.71;100262.94;5091613;28;20109;-60
2022/02/02 20:25:06;;;;;;;13.45;3.72;;;;;;;7.81;69.27;100262.03;5091572;28;20048;-59
2022/02/02 20:27:34;;;;;;;15.90;2.78;;;;;;;7.81;69.15;100254.16;5091410;28;20048;-60
2022/02/02 20:30:05;;;;;;;16.30;3.03;;;;;;;7.81;68.37;100250.69;5084417;28;20063;-59
2022/02/02 20:32:32;;;;;;;13.38;3.20;;;;;;;7.82;68.75;100252.41;5088751;28;20105;-60
2022/02/02 20:34:59;;;;;;;16.30;3.08;;;;;;;7.83;68.98;100254.13;5090603;28;20048;-60
2022/02/02 20:37:28;;;;;;;15.15;3.42;;;;;;;7.82;68.98;100252.41;5091102;28;20105;-60
2022/02/02 20:40:05;;;;;;;13.45;2.92;;;;;;;7.82;69.14;100253.25;5090384;28;20094;-60
2022/02/02 20:42:38;;;;;;;14.65;3.30;;;;;;;7.84;68.91;100265.47;5088970;28;20044;-60
2022/02/02 21:14:56;;;;;;;23.02;4.95;;;;;;;7.34;68.33;100235.81;5090626;28;19924;-62
2022/02/02 21:17:26;;;;;;;16.92;5.07;;;;;;;7.25;68.76;100239.63;5086462;28;20130;-60
2022/02/02 21:20:08;;;;;;;14.10;5.00;;;;;;;7.17;68.96;100235.50;5090459;28;20052;-59
2022/02/02 21:22:47;;;;;;;20.48;4.93;;;;;;;7.12;69.26;100236.56;5090316;28;20407;-60
2022/02/02 21:27:58;;;;;;;16.17;4.38;;;;;;;7.01;69.58;100239.56;5089994;28;20048;-59
2022/02/02 21:30:25;;;;;;;19.30;4.82;;;;;;;6.98;69.47;100239.66;5088477;28;20135;-59
2022/02/02 21:32:52;;;;;;;13.63;4.47;;;;;;;6.95;69.96;100242.41;5070068;28;20125;-60
2022/02/02 21:35:19;;;;;;;16.35;4.47;;;;;;;6.92;70.02;100238.13;5070007;28;20040;-59
2022/02/02 21:37:49;;;;;;;22.35;5.55;;;;;;;6.91;70.25;100239.00;5069976;28;20078;-61
2022/02/02 21:42:45;;;;;;;22.05;5.07;;;;;;;6.88;70.47;100237.34;5069710;28;20493;-61
2022/02/02 21:45:12;;;;;;;22.42;5.22;;;;;;;6.89;70.74;100231.19;5078043;28;20131;-60
2022/02/02 21:47:40;;;;;;;17.60;5.00;;;;;;;6.90;70.48;100234.69;5090195;28;20087;-61
2022/02/02 21:50:11;;;;;;;19.08;4.90;;;;;;;6.92;70.59;100230.28;5089784;28;20048;-62
2022/02/02 21:52:38;;;;;;;18.02;4.85;;;;;;;6.93;71.02;100216.28;5090136;28;20079;-62
2022/02/02 21:55:07;;;;;;;14.65;4.82;;;;;;;6.96;70.66;100224.03;5089716;28;20089;-60
2022/02/02 21:57:33;;;;;;;21.33;5.18;;;;;;;6.98;70.84;100226.56;5090344;28;20055;-59
2022/02/02 22:00:02;;;;;;;13.63;4.65;;;;;;;6.99;70.70;100230.91;5092189;28;20048;-59
2022/02/02 22:02:32;;;;;;;12.52;5.15;;;;;;;7.01;70.77;100226.47;5091250;28;20447;-60
2022/02/02 22:05:00;;;;;;;18.08;5.50;;;;;;;7.02;71.22;100217.69;5094012;28;20093;-59
2022/02/02 22:07:28;;;;;;;20.83;5.53;;;;;;;7.04;70.84;100221.13;5093765;28;20044;-59
2022/02/02 22:09:56;;;;;;;12.50;4.15;;;;;;;7.07;71.03;100209.69;5093147;28;20040;-59
2022/02/02 22:12:24;;;;;;;18.27;5.20;;;;;;;7.10;71.19;100217.44;5109609;28;20048;-59
2022/02/02 22:14:52;;;;;;;17.98;4.88;;;;;;;7.12;71.09;100210.38;5093700;28;20105;-62
2022/02/02 22:17:22;;;;;;;13.32;4.40;;;;;;;7.15;71.17;100212.91;5093812;28;20048;-60
2022/02/02 22:19:52;;;;;;;18.80;4.28;;;;;;;7.17;71.51;100219.78;5091686;28;20056;-62
2022/02/02 22:22:19;;;;;;;18.25;4.20;;;;;;;7.21;71.28;100217.06;5094008;28;20048;-61
2022/02/02 22:24:46;;;;;;;18.80;4.47;;;;;;;7.24;71.26;100209.94;5093779;28;20105;-61
2022/02/02 22:27:12;;;;;;;21.63;4.78;;;;;;;7.26;71.17;100207.28;5093726;28;20414;-59
2022/02/02 22:29:39;;;;;;;15.63;4.43;;;;;;;7.28;71.08;100205.44;5092170;28;20101;-60
2022/02/02 22:32:06;;;;;;;17.90;5.00;;;;;;;7.29;71.07;100202.78;5092281;28;20056;-60
2022/02/02 22:34:33;;;;;;;18.13;5.60;;;;;;;7.30;70.93;100204.47;5093592;28;20097;-60
2022/02/02 22:36:59;;;;;;;19.20;5.68;;;;;;;7.30;70.71;100212.34;5093953;28;20105;-63
2022/02/02 22:39:27;;;;;;;23.45;5.40;;;;;;;7.30;71.07;100209.72;5093601;28;20048;-60
2022/02/02 22:41:54;;;;;;;22.13;5.38;;;;;;;7.32;71.16;100212.28;5091936;28;20059;-61
2022/02/02 22:44:21;;;;;;;20.02;5.45;;;;;;;7.33;71.15;100213.16;5092186;28;20052;-59
2022/02/02 22:46:48;;;;;;;20.15;4.78;;;;;;;7.32;70.98;100212.28;5093696;28;20434;-60
2022/02/02 22:49:14;;;;;;;20.05;5.22;;;;;;;7.32;71.18;100214.91;5091772;28;20101;-60
2022/02/02 22:51:43;;;;;;;18.90;5.60;;;;;;;7.33;71.31;100213.16;5093219;28;20101;-60
2022/02/02 22:54:10;;;;;;;23.65;5.70;;;;;;;7.32;71.13;100222.75;5093187;28;20044;-60
2022/02/02 22:56:37;;;;;;;17.42;5.97;;;;;;;7.30;71.35;100209.72;5092758;28;20048;-59
2022/02/02 22:59:04;;;;;;;26.77;5.88;;;;;;;7.29;71.77;100210.63;5092964;28;20462;-61
2022/02/02 23:01:33;;;;;;;16.02;5.90;;;;;;;7.27;72.02;100214.22;5093035;28;20060;-62
2022/02/02 23:03:59;;;;;;;24.45;6.93;;;;;;;7.25;71.62;100211.66;5092981;28;20040;-58
2022/02/02 23:06:26;;;;;;;24.55;6.78;;;;;;;7.24;71.94;100211.69;5091601;28;20048;-60
2022/02/02 23:08:53;;;;;;;25.40;5.88;;;;;;;7.21;72.17;100217.06;5093033;28;20093;-59